Time;durP1;ratioP1;P1;durP2;ratioP2;P2;SDS_P1;SDS_P2;PMS_P1;PMS_P2;Temp;Humidity;BMP_temperature;BMP_pressure;BME280_temperature;BME280_humidity;BME280_pressure;Samples;Min_cycle;Max_cycle;Signal;HPM_P1;HPM_P2
2021/08/09 00:01:50;;;;;;;1999.90;999.90;;;18.00;99.90;;;;;;5036906;28;20435;-78
2021/08/09 00:04:25;;;;;;;1999.90;999.90;;;18.00;99.90;;;;;;5054790;28;20823;-78
2021/08/09 00:06:57;;;;;;;1999.90;999.90;;;18.00;99.90;;;;;;5036866;28;20422;-78
2021/08/09 00:09:29;;;;;;;1999.90;999.90;;;18.00;99.90;;;;;;5054611;28;20390;-78
2021/08/09 00:12:03;;;;;;;1999.90;999.90;;;17.80;99.90;;;;;;5054803;28;20396;-78
2021/08/09 00:14:43;;;;;;;1999.90;999.90;;;17.80;99.90;;;;;;5054258;28;20402;-78
2021/08/09 00:17:18;;;;;;;1999.90;999.90;;;17.80;99.90;;;;;;5054816;28;20972;-78
2021/08/09 00:19:46;;;;;;;1999.90;999.90;;;17.80;99.90;;;;;;5054766;28;20427;-78
2021/08/09 00:22:18;;;;;;;1999.90;999.90;;;17.90;99.90;;;;;;5055205;28;20395;-78
2021/08/09 00:24:49;;;;;;;1999.90;999.90;;;17.80;99.90;;;;;;5054282;28;20399;-78
2021/08/09 00:27:24;;;;;;;1999.90;999.90;;;17.70;99.90;;;;;;5036945;28;20435;-78
2021/08/09 00:29:55;;;;;;;1999.90;999.90;;;17.80;99.90;;;;;;5054822;28;20411;-78
2021/08/09 00:32:21;;;;;;;1999.90;999.90;;;17.80;99.90;;;;;;5054754;28;20843;-78
2021/08/09 00:34:47;;;;;;;1999.90;999.90;;;17.80;99.90;;;;;;5054265;28;20439;-78
2021/08/09 00:37:18;;;;;;;1999.90;999.90;;;17.80;99.90;;;;;;5054173;28;20242;-78
2021/08/09 00:39:55;;;;;;;1999.90;999.90;;;17.80;99.90;;;;;;5054263;28;20180;-78
2021/08/09 00:42:32;;;;;;;1999.90;999.90;;;17.80;99.90;;;;;;5054256;28;20386;-78
2021/08/09 00:44:58;;;;;;;1999.90;999.90;;;17.70;99.90;;;;;;5054810;28;20781;-78
2021/08/09 00:47:23;;;;;;;1999.90;999.90;;;17.80;99.90;;;;;;5054489;28;20427;-78
2021/08/09 00:50:13;;;;;;;1999.90;999.90;;;17.80;99.90;;;;;;5054115;28;20173;-78
2021/08/09 00:52:44;;;;;;;1999.90;999.90;;;17.70;99.90;;;;;;5036318;28;20185;-78
2021/08/09 00:55:20;;;;;;;1999.90;999.90;;;17.70;99.90;;;;;;5036170;28;20407;-78
2021/08/09 00:57:46;;;;;;;1999.90;999.90;;;17.50;99.90;;;;;;5036013;28;20961;-78
2021/08/09 01:00:17;;;;;;;1999.90;999.90;;;17.50;99.90;;;;;;5054084;28;20442;-78
2021/08/09 01:02:52;;;;;;;1999.90;999.90;;;17.40;99.90;;;;;;5054223;28;20804;-78
2021/08/09 01:05:18;;;;;;;1999.90;999.90;;;17.40;99.90;;;;;;5054144;28;20439;-78
2021/08/09 01:08:21;;;;;;;1999.90;999.90;;;17.50;99.90;;;;;;5036103;28;20419;-78
2021/08/09 01:11:24;;;;;;;1999.90;999.90;;;17.50;99.90;;;;;;5054080;28;20164;-78
2021/08/09 01:14:12;;;;;;;1999.90;999.90;;;17.40;99.90;;;;;;5054194;28;20766;-78
2021/08/09 01:16:40;;;;;;;1999.90;999.90;;;17.40;99.90;;;;;;5053925;28;20944;-78
2021/08/09 01:19:23;;;;;;;1999.90;999.90;;;17.40;99.90;;;;;;5035511;28;20787;-78
2021/08/09 01:21:52;;;;;;;1999.90;999.90;;;17.50;99.90;;;;;;5054224;28;20379;-78
2021/08/09 01:24:30;;;;;;;1999.90;999.90;;;17.40;99.90;;;;;;5053651;28;20407;-78
2021/08/09 01:27:19;;;;;;;1999.90;999.90;;;17.30;99.90;;;;;;5053381;28;20411;-78
2021/08/09 01:29:46;;;;;;;1999.90;999.90;;;17.30;99.90;;;;;;5053886;28;20395;-78
2021/08/09 01:32:12;;;;;;;1999.90;999.90;;;17.30;99.90;;;;;;5054121;28;20486;-78
2021/08/09 01:34:38;;;;;;;1999.90;999.90;;;17.30;99.90;;;;;;5053999;28;20410;-78
2021/08/09 01:37:05;;;;;;;1999.90;999.90;;;17.40;99.90;;;;;;5039594;28;20428;-78
2021/08/09 01:39:34;;;;;;;1999.90;999.90;;;17.30;99.90;;;;;;5039808;28;21036;-78
2021/08/09 01:42:00;;;;;;;1999.90;999.90;;;17.20;99.90;;;;;;5057850;28;20849;-78
2021/08/09 01:44:26;;;;;;;1999.90;999.90;;;17.30;99.90;;;;;;5057965;28;20403;-78
2021/08/09 01:46:52;;;;;;;1999.90;999.90;;;17.30;99.90;;;;;;5057796;28;20851;-78
2021/08/09 01:49:19;;;;;;;1999.90;999.90;;;17.20;99.90;;;;;;5058299;28;20431;-78
2021/08/09 01:51:45;;;;;;;1999.90;999.90;;;17.10;99.90;;;;;;5057801;28;20869;-78
2021/08/09 01:54:12;;;;;;;1999.90;999.90;;;17.10;99.90;;;;;;5057912;28;20398;-78
2021/08/09 01:56:39;;;;;;;1999.90;999.90;;;17.20;99.90;;;;;;5039702;28;20419;-78
2021/08/09 01:59:06;;;;;;;1999.90;999.90;;;17.20;99.90;;;;;;5057500;28;20406;-78
2021/08/09 02:01:32;;;;;;;1999.90;999.90;;;17.20;99.90;;;;;;5057451;28;20402;-78
2021/08/09 02:03:57;;;;;;;1999.90;999.90;;;17.20;99.90;;;;;;5057798;28;20789;-78
2021/08/09 02:06:23;;;;;;;1999.90;999.90;;;17.20;99.90;;;;;;5057374;28;20185;-78
2021/08/09 02:08:49;;;;;;;1999.90;999.90;;;17.30;99.90;;;;;;5057461;28;20164;-78
2021/08/09 02:11:20;;;;;;;1999.90;999.90;;;17.30;99.90;;;;;;5039595;28;20175;-78
2021/08/09 02:13:51;;;;;;;1999.90;999.90;;;17.30;99.90;;;;;;5057656;28;20387;-78
2021/08/09 02:16:35;;;;;;;1999.90;999.90;;;17.30;99.90;;;;;;5057187;28;20422;-78
2021/08/09 02:19:09;;;;;;;1999.90;999.90;;;17.30;99.90;;;;;;5057323;28;20394;-78
2021/08/09 02:22:15;;;;;;;1999.90;999.90;;;17.30;99.90;;;;;;5057824;28;20389;-78
2021/08/09 02:24:46;;;;;;;1999.90;999.90;;;17.30;99.90;;;;;;5003052;28;20422;-78
2021/08/09 02:27:22;;;;;;;1999.90;999.90;;;17.40;99.90;;;;;;5057215;28;20847;-78
2021/08/09 02:29:51;;;;;;;1999.90;999.90;;;17.30;99.90;;;;;;5039415;28;20395;-78
2021/08/09 02:32:24;;;;;;;1999.90;999.90;;;17.30;99.90;;;;;;5057292;28;20407;-78
2021/08/09 02:34:52;;;;;;;1999.90;999.90;;;17.20;99.90;;;;;;5039091;28;20391;-78
2021/08/09 02:37:18;;;;;;;1999.90;999.90;;;17.30;99.90;;;;;;5057010;28;20837;-78
2021/08/09 02:39:45;;;;;;;1999.90;999.90;;;17.20;99.90;;;;;;5056878;28;20454;-78
2021/08/09 02:42:12;;;;;;;1999.90;999.90;;;17.30;99.90;;;;;;5057141;28;20478;-78
2021/08/09 02:44:39;;;;;;;1999.90;999.90;;;17.30;99.90;;;;;;5038717;28;20429;-78
2021/08/09 02:47:07;;;;;;;1999.90;999.90;;;17.30;99.90;;;;;;5039014;28;20518;-78
2021/08/09 02:49:33;;;;;;;1999.90;999.90;;;17.40;99.90;;;;;;5056665;28;20528;-78
2021/08/09 02:52:01;;;;;;;1999.90;999.90;;;17.40;99.90;;;;;;5056554;28;20410;-78
2021/08/09 02:54:29;;;;;;;1999.90;999.90;;;17.40;99.90;;;;;;5038899;28;20407;-78
2021/08/09 02:56:55;;;;;;;1999.90;999.90;;;17.40;99.90;;;;;;5039571;28;20780;-78
2021/08/09 02:59:21;;;;;;;1999.90;999.90;;;17.50;99.90;;;;;;5056675;28;20447;-78
2021/08/09 03:01:47;;;;;;;1999.90;999.90;;;17.50;99.90;;;;;;5056421;28;20770;-78
2021/08/09 03:04:19;;;;;;;1999.90;999.90;;;17.40;99.90;;;;;;5056459;28;20404;-78
2021/08/09 03:06:45;;;;;;;1999.90;999.90;;;17.40;99.90;;;;;;5056544;28;20180;-78
2021/08/09 03:09:11;;;;;;;1999.90;999.90;;;17.40;99.90;;;;;;5056640;28;20395;-78
2021/08/09 03:11:41;;;;;;;1999.90;999.90;;;17.50;99.90;;;;;;5056751;28;20924;-78
2021/08/09 03:14:07;;;;;;;1999.90;999.90;;;17.40;99.90;;;;;;5056337;28;20423;-78
2021/08/09 03:16:34;;;;;;;1999.90;999.90;;;17.40;99.90;;;;;;5056416;28;20450;-78
2021/08/09 03:18:59;;;;;;;1999.90;999.90;;;17.40;99.90;;;;;;5056293;28;20164;-78
2021/08/09 03:21:25;;;;;;;1999.90;999.90;;;17.40;99.90;;;;;;5056013;28;20406;-78
2021/08/09 03:23:51;;;;;;;1999.90;999.90;;;17.40;99.90;;;;;;5055990;28;20188;-78
2021/08/09 03:26:16;;;;;;;1999.90;999.90;;;17.30;99.90;;;;;;5056013;28;20648;-78
2021/08/09 03:28:42;;;;;;;1999.90;999.90;;;17.30;99.90;;;;;;5056190;28;20207;-78
2021/08/09 03:31:07;;;;;;;1999.90;999.90;;;17.30;99.90;;;;;;5055823;28;20164;-78
2021/08/09 03:33:33;;;;;;;1999.90;999.90;;;17.30;99.90;;;;;;5056032;28;20168;-78
2021/08/09 03:35:59;;;;;;;1999.90;999.90;;;17.30;99.90;;;;;;5055870;28;20260;-78
2021/08/09 03:38:25;;;;;;;1999.90;999.90;;;17.20;99.90;;;;;;5055937;28;20238;-78
2021/08/09 03:40:51;;;;;;;1999.90;999.90;;;17.10;99.90;;;;;;5055700;28;20454;-78
2021/08/09 03:43:16;;;;;;;1999.90;999.90;;;17.00;99.90;;;;;;5037846;28;20252;-78
2021/08/09 03:45:42;;;;;;;1999.90;999.90;;;17.00;99.90;;;;;;5056032;28;20192;-78
2021/08/09 03:48:10;;;;;;;1999.90;999.90;;;17.00;99.90;;;;;;5055572;28;20211;-78
2021/08/09 03:50:36;;;;;;;1999.90;999.90;;;16.90;99.90;;;;;;5038112;28;20632;-78
2021/08/09 03:53:02;;;;;;;1999.90;999.90;;;16.90;99.90;;;;;;5037847;28;20779;-78
2021/08/09 03:55:28;;;;;;;1999.90;999.90;;;16.90;99.90;;;;;;5037522;28;20426;-78
2021/08/09 03:57:53;;;;;;;1999.90;999.90;;;16.80;99.90;;;;;;5055259;28;20552;-78
2021/08/09 04:00:19;;;;;;;1999.90;999.90;;;16.90;99.90;;;;;;5055545;28;20185;-78
2021/08/09 04:02:45;;;;;;;1999.90;999.90;;;16.90;99.90;;;;;;5055935;28;20171;-78
2021/08/09 04:05:10;;;;;;;1999.90;999.90;;;17.00;99.90;;;;;;5055956;28;20188;-78
2021/08/09 04:07:38;;;;;;;1999.90;999.90;;;17.00;99.90;;;;;;5037337;28;20238;-78
2021/08/09 04:10:05;;;;;;;1999.90;999.90;;;17.00;99.90;;;;;;5056577;28;20625;-78
2021/08/09 04:12:31;;;;;;;1999.90;999.90;;;17.10;99.90;;;;;;5055694;28;20395;-78
2021/08/09 04:14:56;;;;;;;1999.90;999.90;;;17.00;99.90;;;;;;5055830;28;20414;-78
2021/08/09 04:17:22;;;;;;;1999.90;999.90;;;17.00;99.90;;;;;;5055425;28;20523;-78
2021/08/09 04:19:48;;;;;;;1999.90;999.90;;;17.00;99.90;;;;;;5055479;28;20193;-78
2021/08/09 04:22:16;;;;;;;1999.90;999.90;;;17.00;99.90;;;;;;5055036;28;20183;-78
2021/08/09 04:24:42;;;;;;;1999.90;999.90;;;16.90;99.90;;;;;;5055471;28;20169;-78
2021/08/09 04:27:07;;;;;;;1999.90;999.90;;;16.90;99.90;;;;;;5062809;22;20544;-78
2021/08/09 04:29:33;;;;;;;1999.90;999.90;;;16.90;99.90;;;;;;5055455;28;20172;-78
2021/08/09 04:31:59;;;;;;;1999.90;999.90;;;16.90;99.90;;;;;;5055255;28;20173;-78
2021/08/09 04:34:24;;;;;;;1999.90;999.90;;;16.90;99.90;;;;;;5055278;28;20184;-78
2021/08/09 04:36:50;;;;;;;1999.90;999.90;;;17.00;99.90;;;;;;5055289;28;20266;-78
2021/08/09 04:39:16;;;;;;;1999.90;999.90;;;17.00;99.90;;;;;;5055470;28;20211;-78
2021/08/09 04:41:42;;;;;;;1999.90;999.90;;;17.00;99.90;;;;;;5056087;28;20169;-78
2021/08/09 04:44:08;;;;;;;1999.90;999.90;;;17.00;99.90;;;;;;5055614;28;20161;-78
2021/08/09 04:46:36;;;;;;;1999.90;999.90;;;17.10;99.90;;;;;;5037083;28;20484;-78
2021/08/09 04:49:02;;;;;;;1999.90;999.90;;;17.10;99.90;;;;;;5055389;28;20513;-78
2021/08/09 04:51:28;;;;;;;1999.90;999.90;;;17.10;99.90;;;;;;5054967;28;20494;-78
2021/08/09 04:53:53;;;;;;;1999.90;999.90;;;17.20;99.90;;;;;;5037025;28;20223;-78
2021/08/09 04:56:19;;;;;;;1999.90;999.90;;;17.20;99.90;;;;;;5055055;28;20188;-78
2021/08/09 04:58:44;;;;;;;1999.90;999.90;;;17.20;99.90;;;;;;5055481;28;20184;-78
2021/08/09 05:01:10;;;;;;;1999.90;999.90;;;17.10;99.90;;;;;;5054860;28;20189;-78
2021/08/09 05:03:40;;;;;;;1999.90;999.90;;;17.10;99.90;;;;;;5055291;28;20193;-78
2021/08/09 05:06:10;;;;;;;1999.90;999.90;;;17.10;99.90;;;;;;5037117;28;20315;-77
2021/08/09 05:08:36;;;;;;;1999.90;999.90;;;17.00;99.90;;;;;;5054615;28;20406;-78
2021/08/09 05:11:05;;;;;;;1999.90;999.90;;;17.00;99.90;;;;;;5036350;28;20411;-78
2021/08/09 05:13:30;;;;;;;1999.90;999.90;;;17.10;99.90;;;;;;5037015;28;20173;-78
2021/08/09 05:15:56;;;;;;;1999.90;999.90;;;17.00;99.90;;;;;;5054561;28;20769;-78
2021/08/09 05:18:22;;;;;;;1999.90;999.90;;;17.00;99.90;;;;;;5054846;28;20211;-78
2021/08/09 05:20:48;;;;;;;1999.90;999.90;;;17.00;99.90;;;;;;5054942;28;20192;-78
2021/08/09 05:23:14;;;;;;;1999.90;999.90;;;17.10;99.90;;;;;;5054765;28;20898;-78
2021/08/09 05:25:40;;;;;;;1999.90;999.90;;;17.10;99.90;;;;;;5055269;28;20183;-78
2021/08/09 05:28:06;;;;;;;1999.90;999.90;;;17.10;99.90;;;;;;5054206;28;20435;-78
2021/08/09 05:30:32;;;;;;;1999.90;999.90;;;17.00;99.90;;;;;;5054809;28;20891;-78
2021/08/09 05:33:00;;;;;;;1999.90;999.90;;;17.10;99.90;;;;;;5054724;28;20211;-78
2021/08/09 05:35:29;;;;;;;1999.90;999.90;;;17.10;99.90;;;;;;5036489;28;20415;-78
2021/08/09 05:37:55;;;;;;;1999.90;999.90;;;17.00;99.90;;;;;;5036173;28;20484;-78
2021/08/09 05:40:21;;;;;;;1999.90;999.90;;;17.00;99.90;;;;;;5054519;28;20443;-78
2021/08/09 05:42:49;;;;;;;1999.90;999.90;;;17.00;99.90;;;;;;5054386;28;20172;-78
2021/08/09 05:45:15;;;;;;;1999.90;999.90;;;17.00;99.90;;;;;;5054128;28;20394;-78
2021/08/09 05:47:41;;;;;;;1999.90;999.90;;;17.10;99.90;;;;;;5036242;28;21024;-78
2021/08/09 05:50:08;;;;;;;1999.90;999.90;;;17.10;99.90;;;;;;5036017;28;20450;-78
2021/08/09 05:52:33;;;;;;;1999.90;999.90;;;17.20;99.90;;;;;;5054167;28;20770;-78
2021/08/09 05:55:04;;;;;;;1999.90;999.90;;;17.20;99.90;;;;;;5054438;28;20479;-78
2021/08/09 05:57:30;;;;;;;1999.90;999.90;;;17.20;99.90;;;;;;5036181;28;20189;-78
2021/08/09 05:59:55;;;;;;;1999.90;999.90;;;17.20;99.90;;;;;;5054124;28;20489;-78
2021/08/09 06:02:21;;;;;;;1999.90;999.90;;;17.20;99.90;;;;;;5054561;28;20152;-78
2021/08/09 06:04:47;;;;;;;1999.90;999.90;;;17.20;99.90;;;;;;5054061;28;20157;-78
2021/08/09 06:07:16;;;;;;;1999.90;999.90;;;17.20;99.90;;;;;;5053979;28;20242;-78
2021/08/09 06:09:43;;;;;;;1999.90;999.90;;;17.30;99.90;;;;;;5054490;28;20214;-78
2021/08/09 06:12:10;;;;;;;1999.90;999.90;;;17.30;99.90;;;;;;5054155;28;20748;-78
2021/08/09 06:14:37;;;;;;;1999.90;999.90;;;17.30;99.90;;;;;;5054138;28;20414;-78
2021/08/09 06:17:04;;;;;;;1999.90;999.90;;;17.40;99.90;;;;;;5054057;28;20486;-78
2021/08/09 06:19:30;;;;;;;1999.90;999.90;;;17.40;99.90;;;;;;5036100;28;20672;-78
2021/08/09 06:21:56;;;;;;;1999.90;999.90;;;17.50;99.90;;;;;;5056487;28;20887;-78
2021/08/09 06:24:22;;;;;;;1999.90;999.90;;;17.50;99.90;;;;;;5058241;28;20407;-78
2021/08/09 06:26:49;;;;;;;1999.90;999.90;;;17.50;99.90;;;;;;5057422;28;20203;-78
2021/08/09 06:29:15;;;;;;;1999.90;999.90;;;17.60;99.90;;;;;;5057554;28;20410;-78
2021/08/09 06:31:40;;;;;;;1999.90;999.90;;;17.60;99.90;;;;;;5057544;28;20395;-78
2021/08/09 06:34:06;;;;;;;1999.90;999.90;;;17.60;99.90;;;;;;5057642;28;20399;-78
2021/08/09 06:36:32;;;;;;;1999.90;999.90;;;17.60;99.90;;;;;;5057584;28;20181;-78
2021/08/09 06:38:57;;;;;;;1999.90;999.90;;;17.60;99.90;;;;;;5057327;28;20276;-78
2021/08/09 06:41:31;;;;;;;1999.90;999.90;;;17.70;99.90;;;;;;5057747;28;20196;-78
2021/08/09 06:43:56;;;;;;;1999.90;999.90;;;17.60;99.90;;;;;;5039704;28;20210;-78
2021/08/09 06:46:22;;;;;;;1999.90;999.90;;;17.70;99.90;;;;;;5057105;28;20506;-78
2021/08/09 06:48:48;;;;;;;1999.90;999.90;;;17.80;99.90;;;;;;5057320;28;20497;-78
2021/08/09 06:51:13;;;;;;;1999.90;999.90;;;17.90;99.90;;;;;;5056791;28;20164;-78
2021/08/09 06:53:39;;;;;;;1999.90;999.90;;;18.00;99.90;;;;;;5057260;28;20527;-78
2021/08/09 06:56:05;;;;;;;1999.90;999.90;;;18.10;99.90;;;;;;5057339;28;20222;-78
2021/08/09 06:58:30;;;;;;;1999.90;999.90;;;18.20;99.90;;;;;;5056819;28;20702;-78
2021/08/09 07:00:56;;;;;;;1999.90;999.90;;;18.30;99.90;;;;;;5056229;28;20273;-78
2021/08/09 07:03:22;;;;;;;1999.90;999.90;;;18.20;99.90;;;;;;5057093;28;20157;-78
2021/08/09 07:05:48;;;;;;;1999.90;999.90;;;18.20;99.90;;;;;;5057120;28;20248;-78
2021/08/09 07:08:14;;;;;;;1999.90;999.90;;;18.40;99.90;;;;;;5039177;28;20169;-78
2021/08/09 07:10:41;;;;;;;1999.90;999.90;;;18.50;99.90;;;;;;5056767;28;20853;-78
2021/08/09 07:13:07;;;;;;;1999.90;999.90;;;18.50;99.90;;;;;;5056658;28;20901;-78
2021/08/09 07:15:33;;;;;;;1999.90;999.90;;;18.60;99.90;;;;;;5057131;28;20399;-78
2021/08/09 07:17:59;;;;;;;1999.90;999.90;;;18.40;99.90;;;;;;5057003;28;20778;-78
2021/08/09 07:20:24;;;;;;;1999.90;999.90;;;18.40;99.90;;;;;;5038730;28;20184;-78
2021/08/09 07:22:50;;;;;;;1999.90;999.90;;;18.40;99.90;;;;;;5057077;28;20188;-78
2021/08/09 07:25:17;;;;;;;1999.90;999.90;;;18.40;99.90;;;;;;5056842;28;20156;-78
2021/08/09 07:27:43;;;;;;;1999.90;999.90;;;18.50;99.90;;;;;;5056339;28;20200;-78
2021/08/09 07:30:11;;;;;;;1999.90;999.90;;;18.50;99.90;;;;;;5056683;28;20976;-77
2021/08/09 07:32:38;;;;;;;1999.90;999.90;;;18.50;99.90;;;;;;5055983;28;20411;-78
2021/08/09 07:35:04;;;;;;;1999.90;999.90;;;18.60;99.90;;;;;;5038373;28;20403;-77
2021/08/09 07:37:30;;;;;;;1999.90;999.90;;;18.50;99.90;;;;;;5038216;28;20427;-78
2021/08/09 07:39:56;;;;;;;1999.90;999.90;;;18.60;99.90;;;;;;5038229;28;20445;-78
2021/08/09 07:42:21;;;;;;;1999.90;999.90;;;18.70;99.90;;;;;;5056327;28;20574;-78
2021/08/09 07:44:47;;;;;;;1999.90;999.90;;;18.70;99.90;;;;;;5056456;28;20204;-78
2021/08/09 07:47:13;;;;;;;1999.90;999.90;;;18.70;99.90;;;;;;5056048;28;20242;-78
2021/08/09 07:49:39;;;;;;;1999.90;999.90;;;18.70;99.90;;;;;;5038570;28;20762;-78
2021/08/09 07:52:05;;;;;;;1999.90;999.90;;;18.80;99.90;;;;;;5055910;28;20490;-78
2021/08/09 07:54:31;;;;;;;1999.90;999.90;;;18.90;99.90;;;;;;5056662;28;20188;-78
2021/08/09 07:57:01;;;;;;;1999.90;999.90;;;19.00;99.90;;;;;;5037611;28;20431;-78
2021/08/09 07:59:27;;;;;;;1999.90;999.90;;;19.00;99.90;;;;;;5038765;28;20189;-78
2021/08/09 08:01:53;;;;;;;1999.90;999.90;;;19.00;99.90;;;;;;5055920;28;20433;-78
2021/08/09 08:04:19;;;;;;;1999.90;999.90;;;19.00;99.90;;;;;;5056034;28;20431;-78
2021/08/09 08:06:44;;;;;;;1999.90;999.90;;;19.00;99.90;;;;;;5055907;28;20507;-78
2021/08/09 08:09:10;;;;;;;1999.90;999.90;;;19.10;99.90;;;;;;5038091;28;20835;-78
2021/08/09 08:11:36;;;;;;;1999.90;999.90;;;19.20;99.90;;;;;;5055861;28;20161;-78
2021/08/09 08:14:02;;;;;;;1999.90;999.90;;;19.30;99.90;;;;;;5055754;28;20395;-78
2021/08/09 08:16:28;;;;;;;1999.90;999.90;;;19.40;99.90;;;;;;5055494;28;20207;-78
2021/08/09 08:18:54;;;;;;;1999.90;999.90;;;19.40;99.90;;;;;;5037434;28;20408;-78
2021/08/09 08:21:19;;;;;;;1999.90;999.90;;;19.60;99.90;;;;;;5055437;28;20206;-78
2021/08/09 08:23:45;;;;;;;1999.90;999.90;;;19.70;99.90;;;;;;5055684;28;20239;-78
2021/08/09 08:26:10;;;;;;;1999.90;999.90;;;19.80;99.90;;;;;;5055227;28;20177;-78
2021/08/09 08:28:36;;;;;;;1999.90;999.90;;;19.90;99.90;;;;;;5055924;28;20168;-78
2021/08/09 08:31:03;;;;;;;1999.90;999.90;;;20.00;99.90;;;;;;5055956;28;20235;-78
2021/08/09 08:33:29;;;;;;;1999.90;999.90;;;20.00;99.90;;;;;;5055659;28;20442;-78
2021/08/09 08:35:54;;;;;;;1999.90;999.90;;;20.20;99.90;;;;;;5055618;28;20821;-78
2021/08/09 08:38:20;;;;;;;1999.90;999.90;;;20.20;99.90;;;;;;5055709;28;20407;-79
2021/08/09 08:40:48;;;;;;;1999.90;999.90;;;20.30;99.90;;;;;;5037295;28;20193;-78
2021/08/09 08:43:26;;;;;;;1999.90;999.90;;;20.30;99.90;;;;;;5055385;28;20201;-77
2021/08/09 08:45:59;;;;;;;1999.90;999.90;;;20.40;99.90;;;;;;5054864;28;20399;-78
2021/08/09 08:48:26;;;;;;;1999.90;999.90;;;20.40;99.90;;;;;;5056260;28;20408;-78
2021/08/09 08:50:53;;;;;;;1999.90;999.90;;;20.40;99.90;;;;;;5055635;28;20464;-78
2021/08/09 08:53:19;;;;;;;1999.90;999.90;;;20.40;99.90;;;;;;5055588;28;20818;-78
2021/08/09 08:55:46;;;;;;;1999.90;999.90;;;20.40;99.90;;;;;;5037528;28;20403;-78
2021/08/09 08:58:11;;;;;;;1999.90;999.90;;;20.50;99.90;;;;;;5054969;28;20452;-78
2021/08/09 09:00:38;;;;;;;1999.90;999.90;;;20.50;99.90;;;;;;5054844;28;20920;-78
2021/08/09 09:03:16;;;;;;;1999.90;999.90;;;20.60;99.90;;;;;;5054878;28;20636;-78
2021/08/09 09:05:54;;;;;;;1999.90;999.90;;;20.70;99.90;;;;;;5055568;28;20374;-78
2021/08/09 09:08:44;;;;;;;1999.90;999.90;;;20.80;99.90;;;;;;5055516;28;20376;-78
2021/08/09 09:11:13;;;;;;;1999.90;999.90;;;20.90;99.90;;;;;;5054881;28;20388;-78
2021/08/09 09:14:01;;;;;;;1999.90;999.90;;;21.00;99.90;;;;;;5054896;28;20412;-78
2021/08/09 09:16:41;;;;;;;1999.90;999.90;;;21.00;99.90;;;;;;5054756;28;20430;-78
2021/08/09 09:19:07;;;;;;;1999.90;999.90;;;20.90;99.90;;;;;;5054953;28;20884;-78
2021/08/09 09:21:38;;;;;;;1999.90;999.90;;;20.90;98.80;;;;;;5054844;28;20403;-77
2021/08/09 09:24:07;;;;;;;1999.90;999.90;;;20.70;95.60;;;;;;5035986;28;20254;-76
2021/08/09 09:26:37;;;;;;;1999.90;999.90;;;20.70;96.90;;;;;;5052742;28;20431;-76
2021/08/09 09:29:09;;;;;;;1999.90;999.90;;;20.50;95.70;;;;;;5035305;28;20473;-76
2021/08/09 09:31:36;;;;;;;1999.90;999.90;;;20.50;96.30;;;;;;5052848;28;20411;-76
2021/08/09 09:34:06;;;;;;;1999.90;999.90;;;20.60;96.30;;;;;;5053140;28;20492;-76
2021/08/09 09:39:25;;;;;;;1999.90;999.90;;;20.90;95.00;;;;;;5122553;22;20497;-80
2021/08/09 09:41:52;;;;;;;1999.90;999.90;;;21.00;93.80;;;;;;5037600;28;20481;-80
2021/08/09 09:44:29;;;;;;;1999.90;999.90;;;21.10;93.30;;;;;;5055276;28;20393;-80
2021/08/09 09:47:24;;;;;;;1999.90;999.90;;;21.00;92.00;;;;;;5055018;28;20456;-80
2021/08/09 09:49:56;;;;;;;1999.90;999.90;;;21.10;90.60;;;;;;5055510;28;20398;-80
2021/08/09 09:52:33;;;;;;;1999.90;999.90;;;21.10;93.30;;;;;;5037667;28;20833;-80
2021/08/09 09:55:00;;;;;;;1999.90;999.90;;;21.30;92.70;;;;;;5037302;28;20426;-80
2021/08/09 09:57:29;;;;;;;1999.90;999.90;;;21.40;93.00;;;;;;5058061;28;20423;-80
2021/08/09 09:59:57;;;;;;;1999.90;999.90;;;21.30;90.20;;;;;;5058987;28;20802;-80
2021/08/09 10:02:24;;;;;;;1999.90;999.90;;;21.30;91.40;;;;;;5041068;28;20418;-80
2021/08/09 10:04:52;;;;;;;1999.90;999.90;;;21.40;90.90;;;;;;5058774;28;20410;-80
2021/08/09 10:07:20;;;;;;;1999.90;999.90;;;21.40;91.30;;;;;;5059256;28;20480;-80
2021/08/09 10:09:48;;;;;;;1999.90;999.90;;;21.30;86.10;;;;;;5041729;28;20419;-80
2021/08/09 10:12:25;;;;;;;1999.90;999.90;;;21.30;87.60;;;;;;5059599;28;20420;-80
2021/08/09 10:14:54;;;;;;;1999.90;999.90;;;21.50;80.40;;;;;;5041590;28;20402;-81
2021/08/09 10:17:22;;;;;;;1999.90;999.90;;;21.50;83.30;;;;;;5059503;28;20438;-80
2021/08/09 10:19:50;;;;;;;1999.90;999.90;;;21.70;77.10;;;;;;5059369;28;20448;-80
2021/08/09 10:22:20;;;;;;;1999.90;999.90;;;21.70;78.70;;;;;;5060013;28;20909;-80
2021/08/09 10:24:57;;;;;;;1999.90;999.90;;;21.80;75.20;;;;;;5041574;28;20449;-81
2021/08/09 10:27:47;;;;;;;1999.90;999.90;;;21.90;71.80;;;;;;5041424;28;20442;-81
2021/08/09 10:30:21;;;;;;;1999.90;999.90;;;22.10;61.60;;;;;;5059759;28;20494;-81
2021/08/09 10:32:52;;;;;;;1999.90;999.90;;;22.30;70.00;;;;;;5059332;28;20796;-81
2021/08/09 10:35:47;;;;;;;1999.90;999.90;;;22.20;62.30;;;;;;5041139;28;20410;-81
2021/08/09 10:38:18;;;;;;;1999.90;999.90;;;22.30;68.60;;;;;;5010325;28;20434;-80
2021/08/09 10:40:46;;;;;;;1999.90;999.90;;;22.40;58.30;;;;;;5059542;28;20545;-80
2021/08/09 10:43:12;;;;;;;1999.90;999.90;;;22.40;59.60;;;;;;5059308;28;20399;-80
2021/08/09 10:45:49;;;;;;;1999.90;999.90;;;22.40;55.90;;;;;;5059207;28;20930;-80
2021/08/09 10:48:46;;;;;;;1999.90;999.90;;;22.60;55.60;;;;;;5059169;28;20383;-80
2021/08/09 10:51:12;;;;;;;1999.90;999.90;;;22.90;55.00;;;;;;5041383;28;20438;-80
2021/08/09 10:53:43;;;;;;;1999.90;999.90;;;23.00;50.80;;;;;;5058851;28;20894;-81
2021/08/09 10:56:29;;;;;;;1999.90;999.90;;;23.10;42.80;;;;;;5058128;28;20427;-80
2021/08/09 10:58:56;;;;;;;1999.90;999.90;;;23.10;44.70;;;;;;5058743;28;20482;-80
2021/08/09 11:01:23;;;;;;;1999.90;999.90;;;23.00;47.60;;;;;;5057903;28;20454;-80
2021/08/09 11:04:06;;;;;;;1999.90;999.90;;;23.10;37.40;;;;;;5058512;28;20412;-80
2021/08/09 11:06:41;;;;;;;1999.90;999.90;;;23.20;43.20;;;;;;5039995;28;20497;-80
2021/08/09 11:09:38;;;;;;;1999.90;999.90;;;23.30;38.60;;;;;;5040183;28;20478;-80
2021/08/09 11:12:22;;;;;;;1999.90;999.90;;;23.40;35.10;;;;;;5057885;28;20774;-80
2021/08/09 11:15:07;;;;;;;1999.90;999.90;;;23.80;44.00;;;;;;5057681;28;20401;-80
2021/08/09 11:17:39;;;;;;;1999.90;999.90;;;24.00;36.70;;;;;;5057860;28;20411;-80
2021/08/09 11:20:12;;;;;;;1999.90;999.90;;;24.10;22.80;;;;;;5058413;28;20454;-80
2021/08/09 11:22:46;;;;;;;1999.90;999.90;;;24.30;24.70;;;;;;5058471;28;20894;-80
2021/08/09 11:25:23;;;;;;;1999.90;999.90;;;24.40;21.00;;;;;;5057910;28;20387;-79
2021/08/09 11:28:04;;;;;;;1999.90;999.90;;;24.20;23.10;;;;;;5039369;28;20439;-80
2021/08/09 11:30:37;;;;;;;1999.90;999.90;;;24.60;19.80;;;;;;5057307;28;20486;-80
2021/08/09 11:33:04;;;;;;;1999.90;999.90;;;24.90;19.50;;;;;;5039800;28;20399;-80
2021/08/09 11:35:30;;;;;;;1999.90;999.90;;;24.80;13.70;;;;;;5057623;28;20470;-80
2021/08/09 11:37:58;;;;;;;1999.90;999.90;;;24.50;9.10;;;;;;5057988;28;20538;-80
2021/08/09 11:40:41;;;;;;;1999.90;999.90;;;24.50;7.00;;;;;;5039877;28;20448;-80
2021/08/09 11:43:09;;;;;;;1999.90;999.90;;;24.30;9.00;;;;;;5040022;28;20779;-80
2021/08/09 11:45:36;;;;;;;1999.90;999.90;;;24.10;10.10;;;;;;5058431;28;20433;-80
2021/08/09 11:48:02;;;;;;;1999.90;999.90;;;24.20;9.50;;;;;;5057272;28;20520;-80
2021/08/09 11:50:34;;;;;;;1999.90;999.90;;;24.10;10.90;;;;;;5039807;28;20486;-80
2021/08/09 11:53:00;;;;;;;1999.90;999.90;;;24.00;14.20;;;;;;5058293;28;20396;-80
2021/08/09 11:55:26;;;;;;;1999.90;999.90;;;24.00;15.90;;;;;;5057312;28;20536;-80
2021/08/09 11:57:51;;;;;;;1999.90;999.90;;;23.90;14.70;;;;;;5058267;28;20556;-80
2021/08/09 12:00:17;;;;;;;1999.90;999.90;;;23.90;12.90;;;;;;5057462;28;20185;-80
2021/08/09 12:03:06;;;;;;;1999.90;999.90;;;23.80;18.20;;;;;;5057594;28;20256;-80
2021/08/09 12:05:32;;;;;;;1999.90;999.90;;;23.80;14.10;;;;;;5058311;28;20407;-80
2021/08/09 12:08:03;;;;;;;1999.90;999.90;;;23.70;17.90;;;;;;5057513;28;20423;-80
2021/08/09 12:10:28;;;;;;;1999.90;999.90;;;23.70;14.00;;;;;;5058144;28;20862;-80
2021/08/09 12:12:54;;;;;;;1999.90;999.90;;;23.80;17.40;;;;;;5056221;28;20399;-79